sensor_id;sensor_type;location;lat;lon;timestamp;P1;durP1;ratioP1;P2;durP2;ratioP2
5167;SDS011;2603;48.918;8.980;2022-08-02T00:00:48;1.80;;;1.03;;
5167;SDS011;2603;48.918;8.980;2022-08-02T00:03:15;4.27;;;1.00;;
5167;SDS011;2603;48.918;8.980;2022-08-02T00:05:43;13.23;;;0.70;;
5167;SDS011;2603;48.918;8.980;2022-08-02T00:08:10;1.73;;;0.93;;
5167;SDS011;2603;48.918;8.980;2022-08-02T00:10:36;3.27;;;0.90;;
5167;SDS011;2603;48.918;8.980;2022-08-02T00:13:03;2.30;;;1.10;;
5167;SDS011;2603;48.918;8.980;2022-08-02T00:15:30;1.47;;;0.80;;
5167;SDS011;2603;48.918;8.980;2022-08-02T00:17:56;1.60;;;0.93;;
5167;SDS011;2603;48.918;8.980;2022-08-02T00:20:23;1.77;;;0.90;;
5167;SDS011;2603;48.918;8.980;2022-08-02T00:22:51;1.47;;;1.00;;
5167;SDS011;2603;48.918;8.980;2022-08-02T00:25:18;1.80;;;1.23;;
5167;SDS011;2603;48.918;8.980;2022-08-02T00:27:44;3.10;;;1.00;;
5167;SDS011;2603;48.918;8.980;2022-08-02T00:30:11;4.90;;;1.13;;
5167;SDS011;2603;48.918;8.980;2022-08-02T00:32:38;2.50;;;1.20;;
5167;SDS011;2603;48.918;8.980;2022-08-02T00:35:05;5.27;;;1.20;;
5167;SDS011;2603;48.918;8.980;2022-08-02T00:37:36;3.43;;;1.23;;
5167;SDS011;2603;48.918;8.980;2022-08-02T00:40:06;3.87;;;1.00;;
5167;SDS011;2603;48.918;8.980;2022-08-02T00:42:34;2.47;;;1.00;;
5167;SDS011;2603;48.918;8.980;2022-08-02T00:45:00;2.40;;;1.23;;
5167;SDS011;2603;48.918;8.980;2022-08-02T00:47:27;2.03;;;0.90;;
5167;SDS011;2603;48.918;8.980;2022-08-02T00:49:54;2.23;;;1.20;;
5167;SDS011;2603;48.918;8.980;2022-08-02T00:52:21;1.97;;;1.53;;
5167;SDS011;2603;48.918;8.980;2022-08-02T00:54:47;3.43;;;1.40;;
5167;SDS011;2603;48.918;8.980;2022-08-02T00:57:16;1.97;;;1.00;;
5167;SDS011;2603;48.918;8.980;2022-08-02T00:59:42;2.50;;;1.33;;
5167;SDS011;2603;48.918;8.980;2022-08-02T01:02:09;1.97;;;1.07;;
5167;SDS011;2603;48.918;8.980;2022-08-02T01:04:35;2.80;;;1.03;;
5167;SDS011;2603;48.918;8.980;2022-08-02T01:07:02;2.10;;;1.00;;
5167;SDS011;2603;48.918;8.980;2022-08-02T01:09:30;9.73;;;1.50;;
5167;SDS011;2603;48.918;8.980;2022-08-02T01:11:56;2.17;;;1.10;;
5167;SDS011;2603;48.918;8.980;2022-08-02T01:14:24;2.93;;;1.20;;
5167;SDS011;2603;48.918;8.980;2022-08-02T01:16:51;5.73;;;1.40;;
5167;SDS011;2603;48.918;8.980;2022-08-02T01:19:25;2.17;;;1.00;;
5167;SDS011;2603;48.918;8.980;2022-08-02T01:22:04;2.47;;;1.27;;
5167;SDS011;2603;48.918;8.980;2022-08-02T01:24:49;1.73;;;1.03;;
5167;SDS011;2603;48.918;8.980;2022-08-02T01:27:28;3.47;;;0.90;;
5167;SDS011;2603;48.918;8.980;2022-08-02T01:30:02;2.73;;;1.13;;
5167;SDS011;2603;48.918;8.980;2022-08-02T01:32:32;2.20;;;1.10;;
5167;SDS011;2603;48.918;8.980;2022-08-02T01:35:02;2.07;;;1.00;;
5167;SDS011;2603;48.918;8.980;2022-08-02T01:37:37;1.97;;;0.87;;
5167;SDS011;2603;48.918;8.980;2022-08-02T01:40:06;4.43;;;1.70;;
5167;SDS011;2603;48.918;8.980;2022-08-02T01:42:34;1.40;;;0.80;;
5167;SDS011;2603;48.918;8.980;2022-08-02T01:45:00;3.10;;;1.40;;
5167;SDS011;2603;48.918;8.980;2022-08-02T01:47:30;1.80;;;1.00;;
5167;SDS011;2603;48.918;8.980;2022-08-02T01:50:00;3.17;;;1.00;;
5167;SDS011;2603;48.918;8.980;2022-08-02T01:52:29;3.20;;;1.40;;
5167;SDS011;2603;48.918;8.980;2022-08-02T01:55:00;2.50;;;1.40;;
5167;SDS011;2603;48.918;8.980;2022-08-02T01:57:30;2.67;;;1.33;;
5167;SDS011;2603;48.918;8.980;2022-08-02T02:00:00;2.20;;;1.07;;
5167;SDS011;2603;48.918;8.980;2022-08-02T02:02:31;2.57;;;1.37;;
5167;SDS011;2603;48.918;8.980;2022-08-02T02:04:57;1.80;;;0.80;;
5167;SDS011;2603;48.918;8.980;2022-08-02T02:07:25;2.27;;;1.03;;
5167;SDS011;2603;48.918;8.980;2022-08-02T02:09:52;1.50;;;0.97;;
5167;SDS011;2603;48.918;8.980;2022-08-02T02:12:19;3.90;;;1.13;;
5167;SDS011;2603;48.918;8.980;2022-08-02T02:14:48;3.10;;;1.20;;
5167;SDS011;2603;48.918;8.980;2022-08-02T02:17:16;3.53;;;1.00;;
5167;SDS011;2603;48.918;8.980;2022-08-02T02:19:44;3.80;;;1.37;;
5167;SDS011;2603;48.918;8.980;2022-08-02T02:22:11;3.00;;;1.27;;
5167;SDS011;2603;48.918;8.980;2022-08-02T02:24:37;6.30;;;2.10;;
5167;SDS011;2603;48.918;8.980;2022-08-02T02:27:04;3.33;;;0.90;;
5167;SDS011;2603;48.918;8.980;2022-08-02T02:29:33;4.40;;;1.10;;
5167;SDS011;2603;48.918;8.980;2022-08-02T02:32:00;2.10;;;1.03;;
5167;SDS011;2603;48.918;8.980;2022-08-02T02:34:32;6.40;;;1.30;;
5167;SDS011;2603;48.918;8.980;2022-08-02T02:37:02;3.57;;;1.60;;
5167;SDS011;2603;48.918;8.980;2022-08-02T02:39:31;2.53;;;1.40;;
5167;SDS011;2603;48.918;8.980;2022-08-02T02:41:59;3.03;;;1.13;;
5167;SDS011;2603;48.918;8.980;2022-08-02T02:44:28;5.00;;;1.40;;
5167;SDS011;2603;48.918;8.980;2022-08-02T02:46:55;3.90;;;1.27;;
5167;SDS011;2603;48.918;8.980;2022-08-02T02:49:22;2.40;;;1.37;;
5167;SDS011;2603;48.918;8.980;2022-08-02T02:51:51;5.30;;;1.50;;
5167;SDS011;2603;48.918;8.980;2022-08-02T02:54:18;4.33;;;1.50;;
5167;SDS011;2603;48.918;8.980;2022-08-02T02:56:46;3.07;;;1.30;;
5167;SDS011;2603;48.918;8.980;2022-08-02T02:59:14;2.33;;;1.10;;
5167;SDS011;2603;48.918;8.980;2022-08-02T03:01:40;4.03;;;1.33;;
5167;SDS011;2603;48.918;8.980;2022-08-02T03:04:08;3.10;;;1.50;;
5167;SDS011;2603;48.918;8.980;2022-08-02T03:06:36;3.87;;;1.47;;
5167;SDS011;2603;48.918;8.980;2022-08-02T03:09:04;1.90;;;1.20;;
5167;SDS011;2603;48.918;8.980;2022-08-02T03:11:31;6.13;;;1.50;;
5167;SDS011;2603;48.918;8.980;2022-08-02T03:13:59;2.97;;;1.50;;
5167;SDS011;2603;48.918;8.980;2022-08-02T03:16:26;5.60;;;1.80;;
5167;SDS011;2603;48.918;8.980;2022-08-02T03:18:53;3.13;;;1.20;;
5167;SDS011;2603;48.918;8.980;2022-08-02T03:21:21;2.60;;;1.27;;
5167;SDS011;2603;48.918;8.980;2022-08-02T03:23:48;4.10;;;1.67;;
5167;SDS011;2603;48.918;8.980;2022-08-02T03:26:16;2.60;;;1.53;;
5167;SDS011;2603;48.918;8.980;2022-08-02T03:28:43;2.80;;;1.53;;
5167;SDS011;2603;48.918;8.980;2022-08-02T03:31:10;2.27;;;1.17;;
5167;SDS011;2603;48.918;8.980;2022-08-02T03:33:36;1.80;;;1.03;;
5167;SDS011;2603;48.918;8.980;2022-08-02T03:36:05;2.70;;;1.27;;
5167;SDS011;2603;48.918;8.980;2022-08-02T03:38:33;2.40;;;1.37;;
5167;SDS011;2603;48.918;8.980;2022-08-02T03:41:00;2.60;;;1.70;;
5167;SDS011;2603;48.918;8.980;2022-08-02T03:43:29;8.93;;;1.90;;
5167;SDS011;2603;48.918;8.980;2022-08-02T03:45:56;2.43;;;1.60;;
5167;SDS011;2603;48.918;8.980;2022-08-02T03:48:24;2.60;;;1.70;;
5167;SDS011;2603;48.918;8.980;2022-08-02T03:50:51;8.53;;;1.60;;
5167;SDS011;2603;48.918;8.980;2022-08-02T03:53:17;2.10;;;1.40;;
5167;SDS011;2603;48.918;8.980;2022-08-02T03:55:44;2.80;;;1.43;;
5167;SDS011;2603;48.918;8.980;2022-08-02T03:58:16;8.17;;;2.07;;
5167;SDS011;2603;48.918;8.980;2022-08-02T04:00:45;4.37;;;1.43;;
5167;SDS011;2603;48.918;8.980;2022-08-02T04:03:11;4.50;;;1.60;;
5167;SDS011;2603;48.918;8.980;2022-08-02T04:05:38;6.60;;;1.70;;
5167;SDS011;2603;48.918;8.980;2022-08-02T04:08:05;7.90;;;2.43;;
5167;SDS011;2603;48.918;8.980;2022-08-02T04:10:32;7.23;;;1.80;;
5167;SDS011;2603;48.918;8.980;2022-08-02T04:13:19;5.87;;;1.77;;
5167;SDS011;2603;48.918;8.980;2022-08-02T04:15:49;5.53;;;2.67;;
5167;SDS011;2603;48.918;8.980;2022-08-02T04:18:16;2.50;;;1.67;;
5167;SDS011;2603;48.918;8.980;2022-08-02T04:20:43;4.80;;;1.63;;
5167;SDS011;2603;48.918;8.980;2022-08-02T04:23:11;5.60;;;1.40;;
5167;SDS011;2603;48.918;8.980;2022-08-02T04:25:39;4.57;;;1.60;;
5167;SDS011;2603;48.918;8.980;2022-08-02T04:28:07;3.07;;;1.57;;
5167;SDS011;2603;48.918;8.980;2022-08-02T04:30:34;2.87;;;1.53;;
5167;SDS011;2603;48.918;8.980;2022-08-02T04:33:03;2.30;;;1.53;;
5167;SDS011;2603;48.918;8.980;2022-08-02T04:35:30;6.00;;;1.53;;
5167;SDS011;2603;48.918;8.980;2022-08-02T04:37:57;7.60;;;1.60;;
5167;SDS011;2603;48.918;8.980;2022-08-02T04:40:24;2.40;;;1.53;;
5167;SDS011;2603;48.918;8.980;2022-08-02T04:42:50;3.40;;;1.83;;
5167;SDS011;2603;48.918;8.980;2022-08-02T04:45:17;4.83;;;1.80;;
5167;SDS011;2603;48.918;8.980;2022-08-02T04:47:45;3.93;;;1.50;;
5167;SDS011;2603;48.918;8.980;2022-08-02T04:50:13;3.40;;;1.90;;
5167;SDS011;2603;48.918;8.980;2022-08-02T04:52:39;2.73;;;1.83;;
5167;SDS011;2603;48.918;8.980;2022-08-02T04:55:06;2.60;;;1.53;;
5167;SDS011;2603;48.918;8.980;2022-08-02T04:57:33;2.00;;;1.10;;
5167;SDS011;2603;48.918;8.980;2022-08-02T05:00:18;5.40;;;1.57;;
5167;SDS011;2603;48.918;8.980;2022-08-02T05:02:45;3.33;;;1.73;;
5167;SDS011;2603;48.918;8.980;2022-08-02T05:05:15;2.93;;;1.60;;
5167;SDS011;2603;48.918;8.980;2022-08-02T05:07:41;8.00;;;1.67;;
5167;SDS011;2603;48.918;8.980;2022-08-02T05:10:08;3.30;;;1.57;;
5167;SDS011;2603;48.918;8.980;2022-08-02T05:12:36;3.57;;;1.53;;
5167;SDS011;2603;48.918;8.980;2022-08-02T05:15:03;4.40;;;1.77;;
5167;SDS011;2603;48.918;8.980;2022-08-02T05:17:30;4.27;;;1.57;;
5167;SDS011;2603;48.918;8.980;2022-08-02T05:19:57;3.27;;;1.47;;
5167;SDS011;2603;48.918;8.980;2022-08-02T05:22:25;3.00;;;1.73;;
5167;SDS011;2603;48.918;8.980;2022-08-02T05:24:51;5.20;;;1.60;;
5167;SDS011;2603;48.918;8.980;2022-08-02T05:27:18;4.73;;;1.53;;
5167;SDS011;2603;48.918;8.980;2022-08-02T05:29:44;3.43;;;1.37;;
5167;SDS011;2603;48.918;8.980;2022-08-02T05:32:11;12.00;;;1.60;;
5167;SDS011;2603;48.918;8.980;2022-08-02T05:34:37;5.00;;;1.40;;
5167;SDS011;2603;48.918;8.980;2022-08-02T05:37:04;3.10;;;1.20;;
5167;SDS011;2603;48.918;8.980;2022-08-02T05:39:32;3.10;;;1.30;;
5167;SDS011;2603;48.918;8.980;2022-08-02T05:41:59;2.70;;;1.47;;
5167;SDS011;2603;48.918;8.980;2022-08-02T05:44:25;2.87;;;1.40;;
5167;SDS011;2603;48.918;8.980;2022-08-02T05:46:52;2.27;;;1.37;;
5167;SDS011;2603;48.918;8.980;2022-08-02T05:49:18;2.90;;;1.37;;
5167;SDS011;2603;48.918;8.980;2022-08-02T05:51:48;2.63;;;1.10;;
5167;SDS011;2603;48.918;8.980;2022-08-02T05:54:18;1.90;;;1.20;;
5167;SDS011;2603;48.918;8.980;2022-08-02T05:56:49;5.70;;;1.87;;
5167;SDS011;2603;48.918;8.980;2022-08-02T05:59:19;2.37;;;1.40;;
5167;SDS011;2603;48.918;8.980;2022-08-02T06:01:55;2.10;;;1.40;;
5167;SDS011;2603;48.918;8.980;2022-08-02T06:04:23;4.00;;;1.53;;
5167;SDS011;2603;48.918;8.980;2022-08-02T06:06:51;2.13;;;1.50;;
5167;SDS011;2603;48.918;8.980;2022-08-02T06:09:20;1.93;;;1.27;;
5167;SDS011;2603;48.918;8.980;2022-08-02T06:11:50;1.63;;;1.10;;
5167;SDS011;2603;48.918;8.980;2022-08-02T06:14:18;2.20;;;1.10;;
5167;SDS011;2603;48.918;8.980;2022-08-02T06:16:45;4.27;;;1.47;;
5167;SDS011;2603;48.918;8.980;2022-08-02T06:19:11;5.97;;;1.47;;
5167;SDS011;2603;48.918;8.980;2022-08-02T06:21:38;3.13;;;1.50;;
5167;SDS011;2603;48.918;8.980;2022-08-02T06:24:06;5.00;;;1.47;;
5167;SDS011;2603;48.918;8.980;2022-08-02T06:26:34;5.33;;;1.63;;
5167;SDS011;2603;48.918;8.980;2022-08-02T06:29:03;5.40;;;1.60;;
5167;SDS011;2603;48.918;8.980;2022-08-02T06:31:30;2.60;;;1.23;;
5167;SDS011;2603;48.918;8.980;2022-08-02T06:33:56;10.17;;;1.70;;
5167;SDS011;2603;48.918;8.980;2022-08-02T06:36:25;6.50;;;1.47;;
5167;SDS011;2603;48.918;8.980;2022-08-02T06:38:54;3.90;;;1.77;;
5167;SDS011;2603;48.918;8.980;2022-08-02T06:41:23;8.23;;;1.90;;
5167;SDS011;2603;48.918;8.980;2022-08-02T06:43:52;4.30;;;2.00;;
5167;SDS011;2603;48.918;8.980;2022-08-02T06:46:21;4.60;;;2.10;;
5167;SDS011;2603;48.918;8.980;2022-08-02T06:48:47;8.07;;;2.17;;
5167;SDS011;2603;48.918;8.980;2022-08-02T06:51:14;7.03;;;2.67;;
5167;SDS011;2603;48.918;8.980;2022-08-02T06:53:40;4.73;;;2.40;;
5167;SDS011;2603;48.918;8.980;2022-08-02T06:56:07;6.50;;;2.50;;
5167;SDS011;2603;48.918;8.980;2022-08-02T06:58:34;6.13;;;2.20;;
5167;SDS011;2603;48.918;8.980;2022-08-02T07:01:01;9.43;;;2.57;;
5167;SDS011;2603;48.918;8.980;2022-08-02T07:03:32;6.50;;;3.80;;
5167;SDS011;2603;48.918;8.980;2022-08-02T07:05:59;6.07;;;2.30;;
5167;SDS011;2603;48.918;8.980;2022-08-02T07:08:26;4.43;;;2.00;;
5167;SDS011;2603;48.918;8.980;2022-08-02T07:10:56;6.57;;;2.37;;
5167;SDS011;2603;48.918;8.980;2022-08-02T07:13:25;14.57;;;2.40;;
5167;SDS011;2603;48.918;8.980;2022-08-02T07:15:51;4.43;;;2.30;;
5167;SDS011;2603;48.918;8.980;2022-08-02T07:18:18;9.93;;;2.40;;
5167;SDS011;2603;48.918;8.980;2022-08-02T07:20:46;6.23;;;2.80;;
5167;SDS011;2603;48.918;8.980;2022-08-02T07:23:13;12.73;;;3.33;;
5167;SDS011;2603;48.918;8.980;2022-08-02T07:25:40;7.63;;;3.03;;
5167;SDS011;2603;48.918;8.980;2022-08-02T07:28:08;9.53;;;3.90;;
5167;SDS011;2603;48.918;8.980;2022-08-02T07:30:35;4.40;;;2.47;;
5167;SDS011;2603;48.918;8.980;2022-08-02T07:33:02;4.83;;;2.77;;
5167;SDS011;2603;48.918;8.980;2022-08-02T07:35:29;6.20;;;3.00;;
5167;SDS011;2603;48.918;8.980;2022-08-02T07:37:57;6.57;;;2.83;;
5167;SDS011;2603;48.918;8.980;2022-08-02T07:40:24;4.80;;;2.60;;
5167;SDS011;2603;48.918;8.980;2022-08-02T07:42:51;5.90;;;2.23;;
5167;SDS011;2603;48.918;8.980;2022-08-02T07:45:19;10.17;;;2.90;;
5167;SDS011;2603;48.918;8.980;2022-08-02T07:47:46;7.33;;;2.73;;
5167;SDS011;2603;48.918;8.980;2022-08-02T07:50:14;4.70;;;2.70;;
5167;SDS011;2603;48.918;8.980;2022-08-02T07:52:42;4.30;;;2.73;;
5167;SDS011;2603;48.918;8.980;2022-08-02T07:55:11;4.10;;;2.60;;
5167;SDS011;2603;48.918;8.980;2022-08-02T07:57:39;3.10;;;2.07;;
5167;SDS011;2603;48.918;8.980;2022-08-02T08:00:06;6.30;;;2.13;;
5167;SDS011;2603;48.918;8.980;2022-08-02T08:02:37;3.93;;;2.70;;
5167;SDS011;2603;48.918;8.980;2022-08-02T08:05:04;3.43;;;2.40;;
5167;SDS011;2603;48.918;8.980;2022-08-02T08:07:32;4.13;;;2.43;;
5167;SDS011;2603;48.918;8.980;2022-08-02T08:09:58;2.40;;;1.90;;
5167;SDS011;2603;48.918;8.980;2022-08-02T08:12:27;4.07;;;2.40;;
5167;SDS011;2603;48.918;8.980;2022-08-02T08:28:21;3.70;;;2.03;;
5167;SDS011;2603;48.918;8.980;2022-08-02T08:30:48;11.23;;;2.67;;
5167;SDS011;2603;48.918;8.980;2022-08-02T08:33:15;3.30;;;2.13;;
5167;SDS011;2603;48.918;8.980;2022-08-02T08:35:41;8.40;;;3.53;;
5167;SDS011;2603;48.918;8.980;2022-08-02T08:38:08;4.43;;;2.60;;
5167;SDS011;2603;48.918;8.980;2022-08-02T08:40:35;5.63;;;2.43;;
5167;SDS011;2603;48.918;8.980;2022-08-02T08:43:03;7.13;;;3.50;;
5167;SDS011;2603;48.918;8.980;2022-08-02T08:45:31;8.30;;;2.70;;
5167;SDS011;2603;48.918;8.980;2022-08-02T08:47:59;4.13;;;2.30;;
5167;SDS011;2603;48.918;8.980;2022-08-02T08:50:29;3.60;;;2.30;;
5167;SDS011;2603;48.918;8.980;2022-08-02T08:52:56;2.70;;;2.20;;
5167;SDS011;2603;48.918;8.980;2022-08-02T08:55:28;15.90;;;3.47;;
5167;SDS011;2603;48.918;8.980;2022-08-02T08:57:55;10.77;;;2.30;;
5167;SDS011;2603;48.918;8.980;2022-08-02T09:00:24;7.20;;;2.33;;
5167;SDS011;2603;48.918;8.980;2022-08-02T09:02:52;9.03;;;3.10;;
5167;SDS011;2603;48.918;8.980;2022-08-02T09:05:19;2.80;;;2.00;;
5167;SDS011;2603;48.918;8.980;2022-08-02T09:07:46;7.63;;;2.27;;
5167;SDS011;2603;48.918;8.980;2022-08-02T09:10:33;10.97;;;3.00;;
5167;SDS011;2603;48.918;8.980;2022-08-02T09:13:07;3.60;;;2.30;;
5167;SDS011;2603;48.918;8.980;2022-08-02T09:15:35;5.73;;;1.80;;
5167;SDS011;2603;48.918;8.980;2022-08-02T09:18:03;4.27;;;2.03;;
5167;SDS011;2603;48.918;8.980;2022-08-02T09:20:31;3.37;;;2.40;;
5167;SDS011;2603;48.918;8.980;2022-08-02T09:23:04;3.70;;;2.70;;
5167;SDS011;2603;48.918;8.980;2022-08-02T09:25:31;4.33;;;2.40;;
5167;SDS011;2603;48.918;8.980;2022-08-02T09:27:58;4.10;;;2.53;;
5167;SDS011;2603;48.918;8.980;2022-08-02T09:30:25;7.00;;;3.20;;
5167;SDS011;2603;48.918;8.980;2022-08-02T09:32:52;2.63;;;2.13;;
5167;SDS011;2603;48.918;8.980;2022-08-02T09:35:34;9.43;;;3.23;;
5167;SDS011;2603;48.918;8.980;2022-08-02T09:38:09;15.00;;;2.87;;
5167;SDS011;2603;48.918;8.980;2022-08-02T09:40:38;3.50;;;2.73;;
5167;SDS011;2603;48.918;8.980;2022-08-02T09:43:07;3.60;;;2.40;;
5167;SDS011;2603;48.918;8.980;2022-08-02T09:45:36;5.40;;;2.67;;
5167;SDS011;2603;48.918;8.980;2022-08-02T09:48:05;3.20;;;2.60;;
5167;SDS011;2603;48.918;8.980;2022-08-02T09:50:35;4.60;;;2.27;;
5167;SDS011;2603;48.918;8.980;2022-08-02T09:53:03;8.23;;;2.80;;
5167;SDS011;2603;48.918;8.980;2022-08-02T09:55:33;3.43;;;2.70;;
5167;SDS011;2603;48.918;8.980;2022-08-02T09:58:15;4.57;;;2.37;;
5167;SDS011;2603;48.918;8.980;2022-08-02T10:00:50;6.30;;;2.27;;
5167;SDS011;2603;48.918;8.980;2022-08-02T10:03:18;5.43;;;2.67;;
5167;SDS011;2603;48.918;8.980;2022-08-02T10:05:47;6.10;;;1.93;;
5167;SDS011;2603;48.918;8.980;2022-08-02T10:08:14;4.63;;;2.33;;
5167;SDS011;2603;48.918;8.980;2022-08-02T10:10:41;13.67;;;4.90;;
5167;SDS011;2603;48.918;8.980;2022-08-02T10:13:08;7.10;;;2.50;;
5167;SDS011;2603;48.918;8.980;2022-08-02T10:15:35;3.57;;;1.80;;
5167;SDS011;2603;48.918;8.980;2022-08-02T10:18:05;3.40;;;2.70;;
5167;SDS011;2603;48.918;8.980;2022-08-02T10:20:32;6.70;;;2.57;;
5167;SDS011;2603;48.918;8.980;2022-08-02T10:23:04;4.43;;;2.30;;
5167;SDS011;2603;48.918;8.980;2022-08-02T10:25:32;4.00;;;2.00;;
5167;SDS011;2603;48.918;8.980;2022-08-02T10:28:01;3.23;;;2.30;;
5167;SDS011;2603;48.918;8.980;2022-08-02T10:30:28;2.60;;;2.20;;
5167;SDS011;2603;48.918;8.980;2022-08-02T10:32:55;6.37;;;3.50;;
5167;SDS011;2603;48.918;8.980;2022-08-02T10:35:24;4.30;;;2.40;;
5167;SDS011;2603;48.918;8.980;2022-08-02T10:37:52;3.63;;;2.47;;
5167;SDS011;2603;48.918;8.980;2022-08-02T10:40:21;10.70;;;3.13;;
5167;SDS011;2603;48.918;8.980;2022-08-02T10:42:51;4.50;;;2.60;;
5167;SDS011;2603;48.918;8.980;2022-08-02T10:45:19;3.50;;;2.03;;
5167;SDS011;2603;48.918;8.980;2022-08-02T10:47:56;16.73;;;3.50;;
5167;SDS011;2603;48.918;8.980;2022-08-02T10:53:20;4.37;;;2.43;;
5167;SDS011;2603;48.918;8.980;2022-08-02T10:55:49;6.10;;;1.80;;
5167;SDS011;2603;48.918;8.980;2022-08-02T10:58:16;2.27;;;1.70;;
5167;SDS011;2603;48.918;8.980;2022-08-02T11:00:43;3.70;;;2.27;;
5167;SDS011;2603;48.918;8.980;2022-08-02T11:05:59;6.60;;;2.17;;
5167;SDS011;2603;48.918;8.980;2022-08-02T11:08:27;5.80;;;2.37;;
5167;SDS011;2603;48.918;8.980;2022-08-02T11:10:58;2.50;;;1.90;;
5167;SDS011;2603;48.918;8.980;2022-08-02T11:13:25;2.47;;;1.60;;
5167;SDS011;2603;48.918;8.980;2022-08-02T11:15:58;3.23;;;2.00;;
5167;SDS011;2603;48.918;8.980;2022-08-02T11:21:30;6.20;;;1.83;;
5167;SDS011;2603;48.918;8.980;2022-08-02T11:26:54;9.37;;;2.17;;
5167;SDS011;2603;48.918;8.980;2022-08-02T11:29:22;5.97;;;1.43;;
5167;SDS011;2603;48.918;8.980;2022-08-02T11:31:57;2.40;;;1.60;;
5167;SDS011;2603;48.918;8.980;2022-08-02T11:34:24;1.70;;;1.37;;
5167;SDS011;2603;48.918;8.980;2022-08-02T11:36:51;3.07;;;1.67;;
5167;SDS011;2603;48.918;8.980;2022-08-02T11:39:18;2.73;;;1.40;;
5167;SDS011;2603;48.918;8.980;2022-08-02T11:41:49;2.30;;;1.50;;
5167;SDS011;2603;48.918;8.980;2022-08-02T11:44:18;2.90;;;2.00;;
5167;SDS011;2603;48.918;8.980;2022-08-02T11:46:52;5.13;;;1.73;;
5167;SDS011;2603;48.918;8.980;2022-08-02T11:49:20;2.90;;;1.60;;
5167;SDS011;2603;48.918;8.980;2022-08-02T11:51:53;4.90;;;2.00;;
5167;SDS011;2603;48.918;8.980;2022-08-02T11:54:22;3.37;;;2.20;;
5167;SDS011;2603;48.918;8.980;2022-08-02T11:56:52;3.10;;;1.60;;
5167;SDS011;2603;48.918;8.980;2022-08-02T11:59:20;3.57;;;2.07;;
5167;SDS011;2603;48.918;8.980;2022-08-02T12:01:47;4.37;;;2.10;;
5167;SDS011;2603;48.918;8.980;2022-08-02T12:04:17;4.63;;;1.43;;
5167;SDS011;2603;48.918;8.980;2022-08-02T12:09:31;4.03;;;1.87;;
5167;SDS011;2603;48.918;8.980;2022-08-02T12:11:58;4.00;;;2.47;;
5167;SDS011;2603;48.918;8.980;2022-08-02T12:14:28;6.03;;;2.27;;
5167;SDS011;2603;48.918;8.980;2022-08-02T12:16:56;2.80;;;2.00;;
5167;SDS011;2603;48.918;8.980;2022-08-02T12:19:41;3.17;;;1.90;;
5167;SDS011;2603;48.918;8.980;2022-08-02T12:22:10;3.00;;;1.90;;
5167;SDS011;2603;48.918;8.980;2022-08-02T12:24:39;2.93;;;2.03;;
5167;SDS011;2603;48.918;8.980;2022-08-02T12:27:07;4.80;;;1.40;;
5167;SDS011;2603;48.918;8.980;2022-08-02T12:29:35;3.10;;;1.70;;
5167;SDS011;2603;48.918;8.980;2022-08-02T12:32:03;2.17;;;1.63;;
5167;SDS011;2603;48.918;8.980;2022-08-02T12:34:31;3.20;;;1.53;;
5167;SDS011;2603;48.918;8.980;2022-08-02T12:36:59;2.97;;;1.80;;
5167;SDS011;2603;48.918;8.980;2022-08-02T12:39:33;2.60;;;1.77;;
5167;SDS011;2603;48.918;8.980;2022-08-02T12:42:02;4.80;;;1.90;;
5167;SDS011;2603;48.918;8.980;2022-08-02T12:44:29;2.93;;;1.87;;
5167;SDS011;2603;48.918;8.980;2022-08-02T12:47:01;4.47;;;1.90;;
5167;SDS011;2603;48.918;8.980;2022-08-02T12:49:29;1.80;;;1.30;;
5167;SDS011;2603;48.918;8.980;2022-08-02T12:51:56;6.67;;;1.83;;
5167;SDS011;2603;48.918;8.980;2022-08-02T12:54:23;4.50;;;1.30;;
5167;SDS011;2603;48.918;8.980;2022-08-02T12:56:51;2.67;;;1.40;;
5167;SDS011;2603;48.918;8.980;2022-08-02T12:59:31;1.90;;;1.37;;
5167;SDS011;2603;48.918;8.980;2022-08-02T13:02:01;5.50;;;1.70;;
5167;SDS011;2603;48.918;8.980;2022-08-02T13:04:29;2.10;;;1.30;;
5167;SDS011;2603;48.918;8.980;2022-08-02T13:06:56;3.83;;;1.60;;
5167;SDS011;2603;48.918;8.980;2022-08-02T13:09:23;4.33;;;1.37;;
5167;SDS011;2603;48.918;8.980;2022-08-02T13:11:50;2.30;;;1.67;;
5167;SDS011;2603;48.918;8.980;2022-08-02T13:14:17;3.43;;;1.40;;
5167;SDS011;2603;48.918;8.980;2022-08-02T13:16:44;3.07;;;1.90;;
5167;SDS011;2603;48.918;8.980;2022-08-02T13:19:12;3.63;;;1.67;;
5167;SDS011;2603;48.918;8.980;2022-08-02T13:21:40;2.50;;;1.50;;
5167;SDS011;2603;48.918;8.980;2022-08-02T13:24:08;2.30;;;1.57;;
5167;SDS011;2603;48.918;8.980;2022-08-02T13:26:35;2.37;;;1.63;;
5167;SDS011;2603;48.918;8.980;2022-08-02T13:29:02;2.10;;;1.50;;
5167;SDS011;2603;48.918;8.980;2022-08-02T13:31:28;2.20;;;1.70;;
5167;SDS011;2603;48.918;8.980;2022-08-02T13:33:58;2.33;;;1.40;;
5167;SDS011;2603;48.918;8.980;2022-08-02T13:36:26;4.90;;;1.67;;
5167;SDS011;2603;48.918;8.980;2022-08-02T13:38:52;2.63;;;1.80;;
5167;SDS011;2603;48.918;8.980;2022-08-02T13:41:19;2.57;;;1.50;;
5167;SDS011;2603;48.918;8.980;2022-08-02T13:43:46;2.27;;;1.53;;
5167;SDS011;2603;48.918;8.980;2022-08-02T13:46:12;4.80;;;1.97;;
5167;SDS011;2603;48.918;8.980;2022-08-02T13:48:39;1.97;;;1.33;;
5167;SDS011;2603;48.918;8.980;2022-08-02T13:51:06;3.30;;;1.90;;
5167;SDS011;2603;48.918;8.980;2022-08-02T13:53:37;2.33;;;1.53;;
5167;SDS011;2603;48.918;8.980;2022-08-02T13:56:04;2.73;;;1.43;;
5167;SDS011;2603;48.918;8.980;2022-08-02T13:58:30;1.90;;;1.40;;
5167;SDS011;2603;48.918;8.980;2022-08-02T14:00:57;3.40;;;1.57;;
5167;SDS011;2603;48.918;8.980;2022-08-02T14:03:24;2.17;;;1.40;;
5167;SDS011;2603;48.918;8.980;2022-08-02T14:05:50;3.27;;;1.53;;
5167;SDS011;2603;48.918;8.980;2022-08-02T14:08:17;3.10;;;1.87;;
5167;SDS011;2603;48.918;8.980;2022-08-02T14:10:48;3.73;;;1.53;;
5167;SDS011;2603;48.918;8.980;2022-08-02T14:13:15;9.40;;;1.50;;
5167;SDS011;2603;48.918;8.980;2022-08-02T14:15:43;3.87;;;1.50;;
5167;SDS011;2603;48.918;8.980;2022-08-02T14:18:10;1.83;;;1.33;;
5167;SDS011;2603;48.918;8.980;2022-08-02T14:20:36;4.17;;;1.60;;
5167;SDS011;2603;48.918;8.980;2022-08-02T14:23:04;2.73;;;2.10;;
5167;SDS011;2603;48.918;8.980;2022-08-02T14:25:31;3.00;;;1.80;;
5167;SDS011;2603;48.918;8.980;2022-08-02T14:27:59;5.23;;;1.53;;
5167;SDS011;2603;48.918;8.980;2022-08-02T14:30:27;3.77;;;1.93;;
5167;SDS011;2603;48.918;8.980;2022-08-02T14:32:54;5.90;;;2.00;;
5167;SDS011;2603;48.918;8.980;2022-08-02T14:35:21;2.17;;;1.50;;
5167;SDS011;2603;48.918;8.980;2022-08-02T14:37:49;2.90;;;2.13;;
5167;SDS011;2603;48.918;8.980;2022-08-02T14:40:16;3.17;;;2.10;;
5167;SDS011;2603;48.918;8.980;2022-08-02T14:42:43;1.97;;;1.33;;
5167;SDS011;2603;48.918;8.980;2022-08-02T14:45:11;2.07;;;1.53;;
5167;SDS011;2603;48.918;8.980;2022-08-02T14:47:38;1.70;;;1.30;;
5167;SDS011;2603;48.918;8.980;2022-08-02T14:50:04;2.97;;;1.30;;
5167;SDS011;2603;48.918;8.980;2022-08-02T14:52:32;3.10;;;2.30;;
5167;SDS011;2603;48.918;8.980;2022-08-02T14:54:58;2.67;;;1.60;;
5167;SDS011;2603;48.918;8.980;2022-08-02T14:57:25;4.43;;;1.60;;
5167;SDS011;2603;48.918;8.980;2022-08-02T14:59:52;4.63;;;2.00;;
5167;SDS011;2603;48.918;8.980;2022-08-02T15:02:19;2.03;;;1.50;;
5167;SDS011;2603;48.918;8.980;2022-08-02T15:04:46;2.70;;;1.77;;
5167;SDS011;2603;48.918;8.980;2022-08-02T15:07:13;3.60;;;1.60;;
5167;SDS011;2603;48.918;8.980;2022-08-02T15:09:39;8.43;;;1.93;;
5167;SDS011;2603;48.918;8.980;2022-08-02T15:12:06;5.67;;;1.93;;
5167;SDS011;2603;48.918;8.980;2022-08-02T15:14:34;3.83;;;1.80;;
5167;SDS011;2603;48.918;8.980;2022-08-02T15:17:00;4.90;;;2.10;;
5167;SDS011;2603;48.918;8.980;2022-08-02T15:19:30;2.20;;;1.60;;
5167;SDS011;2603;48.918;8.980;2022-08-02T15:21:57;2.67;;;1.90;;
5167;SDS011;2603;48.918;8.980;2022-08-02T15:24:23;2.87;;;1.63;;
5167;SDS011;2603;48.918;8.980;2022-08-02T15:26:50;7.73;;;2.00;;
5167;SDS011;2603;48.918;8.980;2022-08-02T15:29:16;2.53;;;1.73;;
5167;SDS011;2603;48.918;8.980;2022-08-02T15:31:43;5.60;;;1.60;;
5167;SDS011;2603;48.918;8.980;2022-08-02T15:34:10;2.23;;;1.57;;
5167;SDS011;2603;48.918;8.980;2022-08-02T15:36:38;2.23;;;1.87;;
5167;SDS011;2603;48.918;8.980;2022-08-02T15:39:05;2.50;;;1.40;;
5167;SDS011;2603;48.918;8.980;2022-08-02T15:41:31;2.53;;;1.80;;
5167;SDS011;2603;48.918;8.980;2022-08-02T15:43:58;1.77;;;1.33;;
5167;SDS011;2603;48.918;8.980;2022-08-02T15:46:25;3.03;;;1.77;;
5167;SDS011;2603;48.918;8.980;2022-08-02T15:48:52;3.60;;;1.63;;